Hunts Point, Washington
Current Conditions -  °F | °C
As of 9:53 PM on Thursday 30 Oct 2014 (Local Time) from KBFI Reporting Station
Overcast Overcast  
Wind Chill: 58°   Ceiling: 3600
Heat Index: 58°   Visibility: 10mi
Dew Point: 53°   Wind: 8mph
Humidity: 84%   Direction: 130°SE
Pressure: 29.78"   Gusts: NA
Location:  47.6186°N, 122.204°W
Report Text: KBFI 310453Z 13007KT 10SM OVC036 14/12 A2978 RMK AO2 RAE11 SLP083 P0000 T01440117
Loading
Personal Weather Stations






























Interactive Weather Map
Tropical Storm Tracking
New forecast layout! Learn more

10-Day Weather Forecast

Advertisements
Track Severe Weather on mobile